createdAt,value
2023-03-16T00:00:33.834Z,98392.00
2023-03-16T00:05:36.570Z,98390.63
2023-03-16T00:10:39.150Z,98389.09
2023-03-16T00:15:42.334Z,98389.69
2023-03-16T00:20:44.784Z,98384.47
2023-03-16T00:25:47.392Z,98391.72
2023-03-16T00:30:50.205Z,98381.69
2023-03-16T00:36:02.234Z,98387.63
2023-03-16T00:41:07.058Z,98396.56
2023-03-16T00:46:14.793Z,98389.72
2023-03-16T00:51:19.416Z,98388.38
2023-03-16T00:56:22.180Z,98386.91
2023-03-16T01:01:25.254Z,98382.38
2023-03-16T01:06:28.032Z,98390.63
2023-03-16T01:11:30.443Z,98378.22
2023-03-16T01:16:33.910Z,98385.72
2023-03-16T01:21:38.312Z,98376.59
2023-03-16T01:26:40.718Z,98380.59
2023-03-16T01:31:43.228Z,98374.84
2023-03-16T01:36:48.888Z,98369.41
2023-03-16T01:41:59.342Z,98370.25
2023-03-16T01:47:01.817Z,98373.25
2023-03-16T01:52:14.750Z,98368.78
2023-03-16T01:57:30.475Z,98361.06
2023-03-16T02:02:33.263Z,98354.75
2023-03-16T02:07:45.031Z,98350.97
2023-03-16T02:12:48.259Z,98358.22
2023-03-16T02:17:51.670Z,98351.69
2023-03-16T02:22:56.142Z,98338.34
2023-03-16T02:28:15.412Z,98347.34
2023-03-16T02:33:21.469Z,98342.72
2023-03-16T02:38:26.150Z,98352.13
2023-03-16T02:43:35.240Z,98342.06
2023-03-16T02:48:49.926Z,98331.03
2023-03-16T02:53:52.573Z,98332.53
2023-03-16T02:58:57.942Z,98333.88
2023-03-16T03:04:02.658Z,98328.00
2023-03-16T03:09:08.328Z,98330.19
2023-03-16T03:14:10.835Z,98321.00
2023-03-16T03:19:15.591Z,98325.03
2023-03-16T03:24:18.838Z,98325.75
2023-03-16T03:29:22.715Z,98311.66
2023-03-16T03:34:26.684Z,98305.03
2023-03-16T03:39:29.459Z,98302.25
2023-03-16T03:44:34.690Z,98308.34
2023-03-16T03:49:37.494Z,98305.84
2023-03-16T03:54:40.173Z,98300.53
2023-03-16T03:59:48.873Z,98295.59
2023-03-16T04:05:10.073Z,98289.50
2023-03-16T04:10:12.855Z,98293.31
2023-03-16T04:15:18.200Z,98296.13
2023-03-16T04:20:43.437Z,98289.19
2023-03-16T04:25:50.562Z,98287.66
2023-03-16T04:30:55.429Z,98277.22
2023-03-16T04:36:09.144Z,98275.19
2023-03-16T04:41:13.750Z,98270.75
2023-03-16T04:46:27.117Z,98265.75
2023-03-16T04:51:30.419Z,98267.59
2023-03-16T04:56:53.199Z,98268.38
2023-03-16T05:02:05.931Z,98266.22
2023-03-16T05:07:08.985Z,98275.50
2023-03-16T05:12:14.992Z,98267.69
2023-03-16T05:17:20.270Z,98267.13
2023-03-16T05:22:23.679Z,98266.66
2023-03-16T05:27:48.506Z,98267.25
2023-03-16T05:33:00.183Z,98261.66
2023-03-16T05:38:04.873Z,98263.50
2023-03-16T05:43:10.502Z,98265.41
2023-03-16T05:48:19.118Z,98260.53
2023-03-16T05:53:28.792Z,98255.75
2023-03-16T05:58:35.854Z,98257.25
2023-03-16T06:03:42.439Z,98244.72
2023-03-16T06:08:49.250Z,98253.38
2023-03-16T06:13:53.615Z,98252.72
2023-03-16T06:18:59.574Z,98251.53
2023-03-16T06:24:03.658Z,98249.09
2023-03-16T06:29:06.812Z,98260.81
2023-03-16T06:34:11.703Z,98262.38
2023-03-16T06:39:15.023Z,98270.94
2023-03-16T06:44:22.234Z,98252.06
2023-03-16T06:49:37.906Z,98265.22
2023-03-16T06:54:48.874Z,98260.66
2023-03-16T06:59:54.337Z,98264.09
2023-03-16T07:04:56.975Z,98268.47
2023-03-16T07:10:00.205Z,98260.53
2023-03-16T07:15:03.570Z,98268.50
2023-03-16T07:20:10.571Z,98267.81
2023-03-16T07:25:14.054Z,98277.22
2023-03-16T07:30:22.114Z,98277.09
2023-03-16T07:35:26.824Z,98277.16
2023-03-16T07:40:31.094Z,98279.63
2023-03-16T07:45:41.766Z,98279.59
2023-03-16T07:50:47.171Z,98280.81
2023-03-16T07:55:50.434Z,98274.25
2023-03-16T08:00:58.985Z,98276.84
2023-03-16T08:06:01.678Z,98277.78
2023-03-16T08:11:04.364Z,98278.00
2023-03-16T08:16:29.792Z,98274.50
2023-03-16T08:21:36.531Z,98270.13
2023-03-16T08:26:45.072Z,98270.31
2023-03-16T08:31:48.019Z,98268.19
2023-03-16T08:37:01.262Z,98266.53
2023-03-16T08:42:04.890Z,98253.81
2023-03-16T08:47:17.051Z,98246.09
2023-03-16T08:52:21.057Z,98240.41
2023-03-16T08:57:27.372Z,98239.19
2023-03-16T09:02:29.865Z,98229.50
2023-03-16T09:07:35.698Z,98241.16
2023-03-16T09:12:39.214Z,98237.91
2023-03-16T09:17:43.136Z,98242.09
2023-03-16T09:22:45.896Z,98236.91
2023-03-16T09:27:48.471Z,98218.13
2023-03-16T09:32:50.973Z,98219.63
2023-03-16T09:38:05.663Z,98222.59
2023-03-16T09:43:19.031Z,98223.88
2023-03-16T09:48:22.363Z,98208.22
2023-03-16T09:53:33.521Z,98204.16
2023-03-16T09:58:36.973Z,98198.91
2023-03-16T10:03:57.292Z,98183.25
2023-03-16T10:09:13.603Z,98192.47
2023-03-16T10:14:21.485Z,98189.81
2023-03-16T10:19:42.349Z,98195.28
2023-03-16T10:25:09.189Z,98201.09
2023-03-16T10:30:28.675Z,98188.75
2023-03-16T10:36:03.950Z,98171.81
2023-03-16T10:41:19.177Z,98181.72
2023-03-16T10:46:22.492Z,98174.94
2023-03-16T10:51:29.485Z,98166.09
2023-03-16T10:56:37.518Z,98148.25
2023-03-16T11:01:40.153Z,98142.25
2023-03-16T11:06:53.869Z,98146.44
2023-03-16T11:11:56.676Z,98141.44
2023-03-16T11:17:17.774Z,98138.13
2023-03-16T11:22:27.516Z,98129.56
2023-03-16T11:27:56.883Z,98134.00
2023-03-16T11:33:00.723Z,98130.22
2023-03-16T11:38:03.195Z,98120.38
2023-03-16T11:43:27.376Z,98127.16
2023-03-16T11:48:57.300Z,98112.66
2023-03-16T11:54:17.539Z,98096.38
2023-03-16T11:59:46.245Z,98094.34
2023-03-16T12:05:23.645Z,98082.56
2023-03-16T12:10:36.452Z,98067.88
2023-03-16T12:15:45.119Z,98059.22
2023-03-16T12:20:57.196Z,98056.00
2023-03-16T12:26:00.922Z,98062.81
2023-03-16T12:31:19.049Z,98073.06
2023-03-16T12:36:40.205Z,98075.09
2023-03-16T12:42:24.911Z,98057.94
2023-03-16T12:47:55.786Z,98049.53
2023-03-16T12:52:58.481Z,98036.16
2023-03-16T12:58:08.687Z,98038.16
2023-03-16T13:03:21.549Z,98027.78
2023-03-16T13:08:24.590Z,98022.94
2023-03-16T13:13:28.541Z,98017.63
2023-03-16T13:18:45.115Z,98028.28
2023-03-16T13:23:47.524Z,98030.84
2023-03-16T13:28:55.328Z,98011.72
2023-03-16T13:34:00.394Z,98010.75
2023-03-16T13:39:13.494Z,98000.38
2023-03-16T13:44:18.913Z,97999.03
2023-03-16T13:49:21.659Z,97998.56
2023-03-16T13:54:30.014Z,97992.75
2023-03-16T13:59:32.764Z,97978.91
2023-03-16T14:04:35.303Z,97989.38
2023-03-16T14:09:40.750Z,97972.28
2023-03-16T14:14:46.730Z,97966.63
2023-03-16T14:19:50.751Z,97968.84
2023-03-16T14:25:00.772Z,97958.81
2023-03-16T14:30:26.128Z,97949.66
2023-03-16T14:35:43.195Z,97933.13
2023-03-16T14:40:54.303Z,97922.66
2023-03-16T14:45:57.565Z,97909.69
2023-03-16T14:51:02.998Z,97918.06
2023-03-16T14:56:13.684Z,97919.22
2023-03-16T15:01:20.442Z,97926.34
2023-03-16T15:06:23.087Z,97920.22
2023-03-16T15:11:26.450Z,97919.31
2023-03-16T15:16:29.531Z,97921.84
2023-03-16T15:21:32.238Z,97917.00
2023-03-16T15:26:34.732Z,97904.69
2023-03-16T15:31:38.890Z,97901.94
2023-03-16T15:36:41.534Z,97896.47
2023-03-16T15:41:47.832Z,97898.91
2023-03-16T15:46:50.663Z,97907.75
2023-03-16T15:51:53.179Z,97915.19
2023-03-16T15:56:56.352Z,97912.84
2023-03-16T16:01:59.068Z,97907.56
2023-03-16T16:07:03.021Z,97908.88
2023-03-16T16:12:06.225Z,97903.16
2023-03-16T16:17:15.803Z,97901.34
2023-03-16T16:22:19.195Z,97907.72
2023-03-16T16:27:22.029Z,97902.69
2023-03-16T16:32:25.935Z,97891.81
2023-03-16T16:37:28.751Z,97892.13
2023-03-16T16:42:31.648Z,97901.72
2023-03-16T16:47:34.361Z,97885.44
2023-03-16T16:52:37.326Z,97890.72
2023-03-16T16:57:40.418Z,97877.16
2023-03-16T17:02:51.792Z,97871.69
2023-03-16T17:07:55.003Z,97877.97
2023-03-16T17:12:58.027Z,97871.72
2023-03-16T17:18:13.333Z,97870.66
2023-03-16T17:23:37.142Z,97868.50
2023-03-16T17:28:43.339Z,97873.78
2023-03-16T17:33:46.113Z,97875.72
2023-03-16T17:38:48.636Z,97859.59
2023-03-16T17:43:54.630Z,97872.88
2023-03-16T17:48:57.645Z,97865.06
2023-03-16T17:54:00.160Z,97877.91
2023-03-16T17:59:14.222Z,97873.59
2023-03-16T18:04:27.631Z,97863.69
2023-03-16T18:09:31.503Z,97875.84
2023-03-16T18:14:39.814Z,97869.44
2023-03-16T18:19:43.564Z,97872.31
2023-03-16T18:24:48.665Z,97870.94
2023-03-16T18:29:51.045Z,97877.72
2023-03-16T18:34:54.784Z,97878.16
2023-03-16T18:39:57.605Z,97882.31
2023-03-16T18:45:01.019Z,97872.63
2023-03-16T18:50:03.608Z,97866.09
2023-03-16T18:55:16.974Z,97856.91
2023-03-16T19:00:26.641Z,97858.88
2023-03-16T19:05:35.786Z,97862.84
2023-03-16T19:10:51.253Z,97862.72
2023-03-16T19:15:56.091Z,97855.47
2023-03-16T19:20:58.934Z,97846.03
2023-03-16T19:26:08.014Z,97844.81
2023-03-16T19:31:22.561Z,97842.22
2023-03-16T19:36:26.567Z,97841.09
2023-03-16T19:41:34.486Z,97851.59
2023-03-16T19:46:37.247Z,97856.22
2023-03-16T19:51:39.675Z,97851.28
2023-03-16T19:56:42.567Z,97845.44
2023-03-16T20:01:46.400Z,97847.06
2023-03-16T20:06:50.051Z,97843.63
2023-03-16T20:11:52.587Z,97834.56
2023-03-16T20:16:55.409Z,97830.19
2023-03-16T20:21:58.058Z,97829.22
2023-03-16T20:27:00.567Z,97828.75
2023-03-16T20:32:08.249Z,97844.03
2023-03-16T20:37:28.705Z,97845.03
2023-03-16T20:42:34.401Z,97840.91
2023-03-16T20:47:37.137Z,97842.13
2023-03-16T20:52:39.755Z,97833.31
2023-03-16T20:57:43.779Z,97827.66
2023-03-16T21:02:47.304Z,97830.34
2023-03-16T21:07:49.951Z,97834.72
2023-03-16T21:12:55.877Z,97835.63
2023-03-16T21:18:04.086Z,97818.97
2023-03-16T21:23:16.496Z,97815.50
2023-03-16T21:28:20.790Z,97821.81
2023-03-16T21:33:26.187Z,97810.75
2023-03-16T21:38:31.089Z,97810.78
2023-03-16T21:43:33.718Z,97812.13
2023-03-16T21:48:39.805Z,97818.88
2023-03-16T21:53:42.790Z,97809.31
2023-03-16T21:58:47.188Z,97796.94
2023-03-16T22:03:55.609Z,97797.41
2023-03-16T22:08:59.755Z,97792.63
2023-03-16T22:14:02.231Z,97790.09
2023-03-16T22:19:05.941Z,97789.72
2023-03-16T22:24:16.388Z,97791.75
2023-03-16T22:29:30.399Z,97784.06
2023-03-16T22:34:44.417Z,97785.72
2023-03-16T22:39:47.539Z,97778.69
2023-03-16T22:44:49.976Z,97768.94
2023-03-16T22:49:52.640Z,97762.22
2023-03-16T22:54:55.832Z,97760.72
2023-03-16T22:59:59.499Z,97759.22
2023-03-16T23:05:02.054Z,97757.00
2023-03-16T23:10:04.917Z,97750.34
2023-03-16T23:15:34.518Z,97749.00
2023-03-16T23:20:36.920Z,97750.59
2023-03-16T23:25:39.654Z,97743.97
2023-03-16T23:30:42.302Z,97739.66
2023-03-16T23:35:47.067Z,97748.63
2023-03-16T23:40:49.905Z,97733.84
2023-03-16T23:45:52.749Z,97741.78
2023-03-16T23:50:56.818Z,97743.31
2023-03-16T23:55:59.970Z,97738.28
